createdAt,value
2022-08-01T00:02:11.577Z,18.14
2022-08-01T00:07:13.710Z,18.06
2022-08-01T00:12:15.313Z,18.08
2022-08-01T00:17:16.925Z,18.06
2022-08-01T00:22:18.495Z,18.02
2022-08-01T00:27:21.150Z,17.95
2022-08-01T00:32:23.027Z,17.96
2022-08-01T00:37:24.531Z,17.92
2022-08-01T00:42:26.065Z,17.94
2022-08-01T00:47:27.579Z,17.96
2022-08-01T00:52:29.147Z,17.87
2022-08-01T00:58:02.221Z,17.83
2022-08-01T01:02:52.762Z,17.86
2022-08-01T01:08:03.138Z,17.93
2022-08-01T01:13:10.410Z,17.94
2022-08-01T01:18:20.638Z,17.95
2022-08-01T01:23:46.886Z,17.96
2022-08-01T01:29:12.253Z,17.95
2022-08-01T01:34:16.264Z,17.93
2022-08-01T01:39:18.641Z,17.91
2022-08-01T01:44:22.946Z,17.84
2022-08-01T01:49:26.824Z,17.83
2022-08-01T01:54:36.198Z,17.76
2022-08-01T01:59:40.515Z,17.79
2022-08-01T02:04:44.656Z,17.75
2022-08-01T02:09:47.955Z,17.72
2022-08-01T02:14:53.353Z,17.62
2022-08-01T02:19:55.461Z,17.65
2022-08-01T02:25:04.640Z,17.73
2022-08-01T02:30:08.310Z,17.75
2022-08-01T02:35:14.422Z,17.74
2022-08-01T02:40:18.294Z,17.79
2022-08-01T02:45:23.370Z,17.83
2022-08-01T02:50:27.424Z,17.88
2022-08-01T02:55:29.999Z,17.80
2022-08-01T03:00:33.331Z,17.66
2022-08-01T03:05:36.661Z,17.79
2022-08-01T03:10:40.876Z,17.75
2022-08-01T03:15:45.017Z,17.61
2022-08-01T03:20:47.070Z,17.67
2022-08-01T03:25:52.100Z,17.65
2022-08-01T03:30:54.351Z,17.64
2022-08-01T03:35:56.818Z,17.61
2022-08-01T03:41:03.588Z,17.51
2022-08-01T03:46:10.359Z,17.44
2022-08-01T03:51:13.549Z,17.40
2022-08-01T03:56:20.276Z,17.45
2022-08-01T04:01:22.298Z,17.47
2022-08-01T04:06:26.866Z,17.39
2022-08-01T04:11:29.482Z,17.44
2022-08-01T04:16:31.101Z,17.27
2022-08-01T04:21:33.857Z,17.39
2022-08-01T04:26:37.263Z,17.30
2022-08-01T04:31:42.999Z,17.37
2022-08-01T04:36:46.429Z,17.31
2022-08-01T04:41:48.761Z,17.28
2022-08-01T04:46:55.508Z,17.27
2022-08-01T04:51:58.695Z,17.29
2022-08-01T04:57:01.418Z,17.26
2022-08-01T05:02:03.314Z,17.23
2022-08-01T05:07:05.831Z,17.13
2022-08-01T05:12:08.545Z,16.99
2022-08-01T05:17:10.636Z,16.93
2022-08-01T05:22:12.331Z,16.89
2022-08-01T05:27:15.598Z,16.61
2022-08-01T05:32:18.170Z,16.63
2022-08-01T05:37:21.535Z,16.18
2022-08-01T05:42:23.147Z,16.45
2022-08-01T05:47:24.796Z,16.42
2022-08-01T05:52:26.347Z,16.58
2022-08-01T05:57:27.909Z,16.80
2022-08-01T06:02:29.684Z,17.08
2022-08-01T06:07:31.283Z,17.30
2022-08-01T06:12:36.924Z,17.63
2022-08-01T06:17:38.603Z,17.81
2022-08-01T06:22:40.145Z,17.97
2022-08-01T06:27:42.254Z,18.15
2022-08-01T06:32:43.836Z,18.23
2022-08-01T06:37:48.596Z,18.36
2022-08-01T06:42:50.849Z,18.12
2022-08-01T06:47:52.730Z,18.20
2022-08-01T06:52:54.339Z,18.43
2022-08-01T06:57:55.982Z,18.53
2022-08-01T07:02:59.646Z,18.69
2022-08-01T07:08:01.199Z,18.68
2022-08-01T07:13:02.803Z,18.81
2022-08-01T07:18:05.666Z,18.92
2022-08-01T07:23:07.358Z,19.07
2022-08-01T07:28:09.765Z,18.86
2022-08-01T07:33:11.909Z,18.63
2022-08-01T07:38:13.820Z,18.48
2022-08-01T07:43:15.370Z,18.35
2022-08-01T07:48:22.256Z,18.38
2022-08-01T07:53:24.036Z,18.32
2022-08-01T07:58:26.301Z,18.62
2022-08-01T08:03:27.947Z,18.96
2022-08-01T08:08:29.577Z,19.24
2022-08-01T08:13:31.268Z,19.33
2022-08-01T08:18:32.807Z,19.40
2022-08-01T08:23:53.267Z,19.48
2022-08-01T08:28:54.806Z,19.64
2022-08-01T08:33:56.741Z,19.69
2022-08-01T08:39:04.457Z,19.80
2022-08-01T08:44:10.038Z,19.75
2022-08-01T08:49:20.621Z,20.00
2022-08-01T08:54:29.146Z,20.10
2022-08-01T08:59:33.350Z,20.12
2022-08-01T09:09:56.781Z,20.10
2022-08-01T09:15:01.903Z,20.13
2022-08-01T09:20:04.055Z,20.14
2022-08-01T09:25:09.742Z,20.21
2022-08-01T09:30:23.695Z,20.07
2022-08-01T09:35:43.340Z,20.22
2022-08-01T09:40:49.993Z,20.42
2022-08-01T09:45:53.549Z,20.48
2022-08-01T09:51:04.042Z,20.54
2022-08-01T09:56:14.084Z,20.40
2022-08-01T10:01:15.831Z,20.18
2022-08-01T10:06:24.751Z,20.22
2022-08-01T10:11:27.428Z,20.51
2022-08-01T10:16:40.120Z,21.07
2022-08-01T10:21:57.436Z,21.47
2022-08-01T10:27:09.257Z,21.92
2022-08-01T10:32:11.204Z,21.68
2022-08-01T10:37:14.406Z,21.37
2022-08-01T10:42:18.822Z,21.22
2022-08-01T10:47:50.599Z,21.31
2022-08-01T10:53:23.203Z,21.41
2022-08-01T10:58:42.752Z,21.08
2022-08-01T11:04:03.077Z,20.63
2022-08-01T11:09:12.701Z,20.75
2022-08-01T11:14:25.939Z,20.79
2022-08-01T11:20:07.800Z,20.85
2022-08-01T11:25:09.560Z,20.87
2022-08-01T11:30:15.186Z,20.92
2022-08-01T11:35:21.795Z,20.94
2022-08-01T11:40:28.023Z,21.08
2022-08-01T11:45:48.675Z,21.13
2022-08-01T11:50:54.590Z,21.26
2022-08-01T11:55:56.379Z,21.33
2022-08-01T12:00:59.338Z,21.24
2022-08-01T12:06:01.800Z,21.23
2022-08-01T12:11:06.930Z,21.16
2022-08-01T12:16:10.136Z,21.03
2022-08-01T12:21:11.747Z,20.94
2022-08-01T12:26:25.856Z,20.82
2022-08-01T12:31:33.804Z,20.83
2022-08-01T12:36:38.102Z,20.74
2022-08-01T12:41:39.662Z,20.69
2022-08-01T12:46:44.492Z,20.72
2022-08-01T12:51:46.508Z,20.71
2022-08-01T12:56:59.464Z,20.52
2022-08-01T13:02:09.720Z,20.53
2022-08-01T13:07:11.317Z,20.56
2022-08-01T13:12:13.231Z,20.56
2022-08-01T13:17:34.132Z,20.39
2022-08-01T13:22:37.579Z,20.33
2022-08-01T13:27:39.676Z,20.14
2022-08-01T13:32:59.947Z,20.22
2022-08-01T13:38:01.498Z,20.27
2022-08-01T13:43:03.372Z,20.12
2022-08-01T13:48:12.763Z,20.17
2022-08-01T13:53:20.243Z,20.07
2022-08-01T13:58:21.847Z,20.08
2022-08-01T14:03:27.125Z,20.09
2022-08-01T14:08:35.486Z,19.92
2022-08-01T14:13:39.441Z,20.00
2022-08-01T14:18:48.288Z,19.91
2022-08-01T14:23:50.211Z,19.86
2022-08-01T14:28:51.852Z,19.85
2022-08-01T14:33:53.502Z,19.68
2022-08-01T14:38:55.194Z,19.68
2022-08-01T14:44:03.387Z,19.68
2022-08-01T14:49:05.018Z,19.73
2022-08-01T14:54:07.057Z,19.65
2022-08-01T14:59:10.917Z,19.60
2022-08-01T15:04:23.459Z,19.56
2022-08-01T15:09:25.277Z,19.67
2022-08-01T15:14:45.358Z,19.53
2022-08-01T15:19:52.214Z,19.44
2022-08-01T15:24:57.555Z,19.41
2022-08-01T15:30:02.117Z,19.46
2022-08-01T15:35:03.965Z,19.33
2022-08-01T15:40:06.154Z,19.32
2022-08-01T15:45:10.679Z,19.32
2022-08-01T15:50:15.046Z,19.25
2022-08-01T15:55:16.656Z,19.22
2022-08-01T16:00:18.380Z,19.18
2022-08-01T16:05:20.306Z,19.13
2022-08-01T16:10:24.645Z,19.04
2022-08-01T16:15:34.797Z,19.08
2022-08-01T16:20:44.594Z,18.98
2022-08-01T16:25:49.410Z,18.96
2022-08-01T16:31:04.972Z,18.88
2022-08-01T16:36:17.031Z,18.85
2022-08-01T16:41:19.855Z,18.61
2022-08-01T16:46:23.827Z,18.70
2022-08-01T16:51:25.457Z,18.62
2022-08-01T16:56:26.992Z,18.54
2022-08-01T17:01:59.011Z,18.49
2022-08-01T17:06:52.308Z,18.41
2022-08-01T17:11:53.922Z,18.30
2022-08-01T17:16:55.624Z,18.22
2022-08-01T17:21:57.197Z,18.32
2022-08-01T17:26:58.805Z,18.38
2022-08-01T17:32:00.401Z,18.27
2022-08-01T17:37:02.440Z,18.22
2022-08-01T17:42:07.729Z,18.22
2022-08-01T17:47:09.721Z,18.16
2022-08-01T17:52:14.522Z,18.12
2022-08-01T17:57:16.545Z,18.07
2022-08-01T18:02:20.226Z,18.08
2022-08-01T18:07:22.387Z,17.92
2022-08-01T18:12:43.961Z,17.86
2022-08-01T18:17:45.563Z,17.86
2022-08-01T18:22:47.174Z,17.71
2022-08-01T18:28:23.388Z,17.67
2022-08-01T18:33:10.896Z,17.73
2022-08-01T18:38:16.320Z,17.74
2022-08-01T18:43:18.351Z,17.73
2022-08-01T18:48:20.316Z,17.77
2022-08-01T18:53:23.952Z,17.71
2022-08-01T18:58:25.654Z,17.62
2022-08-01T19:03:27.301Z,17.35
2022-08-01T19:08:28.836Z,17.15
2022-08-01T19:13:31.779Z,16.90
2022-08-01T19:18:33.901Z,16.81
2022-08-01T19:23:55.548Z,16.69
2022-08-01T19:29:01.822Z,16.52
2022-08-01T19:34:05.464Z,16.33
2022-08-01T19:39:07.709Z,16.23
2022-08-01T19:44:12.419Z,16.17
2022-08-01T19:49:23.670Z,16.13
2022-08-01T19:54:29.670Z,15.97
2022-08-01T19:59:37.082Z,15.97
2022-08-01T20:04:38.748Z,15.89
2022-08-01T20:09:41.859Z,15.72
2022-08-01T20:14:43.932Z,15.62
2022-08-01T20:19:45.476Z,15.53
2022-08-01T20:24:54.849Z,15.48
2022-08-01T20:29:58.403Z,15.41
2022-08-01T20:35:00.568Z,15.26
2022-08-01T20:40:02.876Z,15.26
2022-08-01T20:45:05.321Z,15.24
2022-08-01T20:50:27.069Z,15.32
2022-08-01T20:55:54.560Z,15.22
2022-08-01T21:00:57.365Z,14.97
2022-08-01T21:06:08.107Z,15.05
2022-08-01T21:11:16.079Z,14.94
2022-08-01T21:16:26.334Z,14.94
2022-08-01T21:21:27.934Z,14.97
2022-08-01T21:26:31.161Z,14.92
2022-08-01T21:31:40.763Z,14.89
2022-08-01T21:36:45.853Z,14.93
2022-08-01T21:41:56.512Z,14.88
2022-08-01T21:47:03.077Z,14.75
2022-08-01T21:52:10.739Z,14.81
2022-08-01T21:57:34.716Z,14.78
2022-08-01T22:02:42.240Z,14.72
2022-08-01T22:07:57.596Z,14.78
2022-08-01T22:12:59.184Z,14.77
2022-08-01T22:18:01.500Z,14.80
2022-08-01T22:23:05.118Z,14.87
2022-08-01T22:28:09.949Z,14.88
2022-08-01T22:33:17.178Z,14.91
2022-08-01T22:38:22.493Z,15.15
2022-08-01T22:43:30.157Z,15.61
2022-08-01T22:48:40.585Z,15.82
2022-08-01T22:54:02.550Z,16.25
2022-08-01T22:59:14.570Z,16.47
2022-08-01T23:04:33.880Z,16.61
2022-08-01T23:09:53.196Z,16.80
2022-08-01T23:14:58.081Z,16.82
2022-08-01T23:20:07.289Z,16.78
2022-08-01T23:25:11.986Z,16.94
2022-08-01T23:30:14.124Z,17.03
2022-08-01T23:35:15.641Z,17.05
2022-08-01T23:40:17.873Z,17.03
2022-08-01T23:45:19.526Z,16.90
2022-08-01T23:50:21.942Z,17.00
2022-08-01T23:55:36.803Z,17.03
